sensor_id;sensor_type;location;lat;lon;timestamp;P1;durP1;ratioP1;P2;durP2;ratioP2
32523;SDS011;18965;52.242;20.886;2022-08-03T00:01:40;7.93;;;7.03;;
32523;SDS011;18965;52.242;20.886;2022-08-03T00:04:07;9.95;;;7.32;;
32523;SDS011;18965;52.242;20.886;2022-08-03T00:06:34;9.27;;;7.53;;
32523;SDS011;18965;52.242;20.886;2022-08-03T00:09:00;10.23;;;7.45;;
32523;SDS011;18965;52.242;20.886;2022-08-03T00:11:27;11.95;;;7.55;;
32523;SDS011;18965;52.242;20.886;2022-08-03T00:13:53;7.93;;;7.13;;
32523;SDS011;18965;52.242;20.886;2022-08-03T00:16:19;10.18;;;7.00;;
32523;SDS011;18965;52.242;20.886;2022-08-03T00:18:44;11.60;;;8.10;;
32523;SDS011;18965;52.242;20.886;2022-08-03T00:21:10;8.35;;;7.55;;
32523;SDS011;18965;52.242;20.886;2022-08-03T00:23:36;9.73;;;7.93;;
32523;SDS011;18965;52.242;20.886;2022-08-03T00:26:02;11.75;;;7.47;;
32523;SDS011;18965;52.242;20.886;2022-08-03T00:28:28;9.38;;;7.57;;
32523;SDS011;18965;52.242;20.886;2022-08-03T00:30:54;7.97;;;7.22;;
32523;SDS011;18965;52.242;20.886;2022-08-03T00:33:20;8.43;;;7.35;;
32523;SDS011;18965;52.242;20.886;2022-08-03T00:35:46;9.25;;;6.75;;
32523;SDS011;18965;52.242;20.886;2022-08-03T00:38:12;9.38;;;7.18;;
32523;SDS011;18965;52.242;20.886;2022-08-03T00:40:38;10.10;;;6.93;;
32523;SDS011;18965;52.242;20.886;2022-08-03T00:43:05;9.30;;;6.85;;
32523;SDS011;18965;52.242;20.886;2022-08-03T00:45:32;9.27;;;7.10;;
32523;SDS011;18965;52.242;20.886;2022-08-03T00:48:00;8.10;;;7.13;;
32523;SDS011;18965;52.242;20.886;2022-08-03T00:50:28;8.10;;;6.55;;
32523;SDS011;18965;52.242;20.886;2022-08-03T00:52:56;7.95;;;7.07;;
32523;SDS011;18965;52.242;20.886;2022-08-03T00:55:23;10.23;;;7.20;;
32523;SDS011;18965;52.242;20.886;2022-08-03T00:57:50;8.52;;;7.13;;
32523;SDS011;18965;52.242;20.886;2022-08-03T01:00:19;9.82;;;7.28;;
32523;SDS011;18965;52.242;20.886;2022-08-03T01:02:47;8.68;;;7.45;;
32523;SDS011;18965;52.242;20.886;2022-08-03T01:05:13;8.40;;;7.00;;
32523;SDS011;18965;52.242;20.886;2022-08-03T01:08:26;7.57;;;6.78;;
32523;SDS011;18965;52.242;20.886;2022-08-03T01:13:02;8.27;;;7.00;;
32523;SDS011;18965;52.242;20.886;2022-08-03T01:21:09;11.18;;;6.80;;
32523;SDS011;18965;52.242;20.886;2022-08-03T01:23:48;9.80;;;6.88;;
32523;SDS011;18965;52.242;20.886;2022-08-03T01:26:41;10.13;;;6.78;;
32523;SDS011;18965;52.242;20.886;2022-08-03T01:31:58;14.82;;;7.18;;
32523;SDS011;18965;52.242;20.886;2022-08-03T01:34:29;8.45;;;6.78;;
32523;SDS011;18965;52.242;20.886;2022-08-03T01:36:58;8.30;;;7.40;;
32523;SDS011;18965;52.242;20.886;2022-08-03T01:39:27;7.50;;;6.57;;
32523;SDS011;18965;52.242;20.886;2022-08-03T01:41:57;8.48;;;6.57;;
32523;SDS011;18965;52.242;20.886;2022-08-03T01:44:28;8.32;;;7.00;;
32523;SDS011;18965;52.242;20.886;2022-08-03T01:46:58;7.88;;;6.63;;
32523;SDS011;18965;52.242;20.886;2022-08-03T01:49:26;8.07;;;6.57;;
32523;SDS011;18965;52.242;20.886;2022-08-03T01:51:54;8.57;;;6.97;;
32523;SDS011;18965;52.242;20.886;2022-08-03T01:54:22;7.53;;;6.78;;
32523;SDS011;18965;52.242;20.886;2022-08-03T01:56:50;9.93;;;7.10;;
32523;SDS011;18965;52.242;20.886;2022-08-03T01:59:17;7.63;;;6.93;;
32523;SDS011;18965;52.242;20.886;2022-08-03T02:01:45;9.23;;;7.35;;
32523;SDS011;18965;52.242;20.886;2022-08-03T02:04:13;9.25;;;7.07;;
32523;SDS011;18965;52.242;20.886;2022-08-03T02:06:42;8.53;;;6.73;;
32523;SDS011;18965;52.242;20.886;2022-08-03T02:09:11;8.35;;;6.85;;
32523;SDS011;18965;52.242;20.886;2022-08-03T02:11:38;8.10;;;7.28;;
32523;SDS011;18965;52.242;20.886;2022-08-03T02:14:06;8.27;;;7.40;;
32523;SDS011;18965;52.242;20.886;2022-08-03T02:16:33;8.75;;;6.97;;
32523;SDS011;18965;52.242;20.886;2022-08-03T02:19:01;12.88;;;8.45;;
32523;SDS011;18965;52.242;20.886;2022-08-03T02:23:57;10.35;;;8.48;;
32523;SDS011;18965;52.242;20.886;2022-08-03T02:26:23;8.25;;;7.20;;
32523;SDS011;18965;52.242;20.886;2022-08-03T02:28:53;11.10;;;7.80;;
32523;SDS011;18965;52.242;20.886;2022-08-03T02:31:22;9.85;;;8.15;;
32523;SDS011;18965;52.242;20.886;2022-08-03T02:33:53;9.27;;;7.75;;
32523;SDS011;18965;52.242;20.886;2022-08-03T02:36:24;9.98;;;7.25;;
32523;SDS011;18965;52.242;20.886;2022-08-03T02:38:53;8.00;;;7.20;;
32523;SDS011;18965;52.242;20.886;2022-08-03T02:41:23;8.30;;;7.30;;
32523;SDS011;18965;52.242;20.886;2022-08-03T02:43:53;10.90;;;7.05;;
32523;SDS011;18965;52.242;20.886;2022-08-03T02:46:23;8.93;;;6.88;;
32523;SDS011;18965;52.242;20.886;2022-08-03T02:48:52;7.90;;;7.10;;
32523;SDS011;18965;52.242;20.886;2022-08-03T02:51:20;7.65;;;6.40;;
32523;SDS011;18965;52.242;20.886;2022-08-03T02:53:47;8.60;;;7.70;;
32523;SDS011;18965;52.242;20.886;2022-08-03T02:56:14;9.30;;;7.60;;
32523;SDS011;18965;52.242;20.886;2022-08-03T02:58:42;7.70;;;6.85;;
32523;SDS011;18965;52.242;20.886;2022-08-03T03:01:09;8.63;;;7.72;;
32523;SDS011;18965;52.242;20.886;2022-08-03T03:03:36;9.77;;;7.50;;
32523;SDS011;18965;52.242;20.886;2022-08-03T03:06:04;9.10;;;7.45;;
32523;SDS011;18965;52.242;20.886;2022-08-03T03:08:31;11.32;;;8.82;;
32523;SDS011;18965;52.242;20.886;2022-08-03T03:10:58;13.07;;;9.88;;
32523;SDS011;18965;52.242;20.886;2022-08-03T03:13:26;12.43;;;8.65;;
32523;SDS011;18965;52.242;20.886;2022-08-03T03:15:54;12.15;;;8.48;;
32523;SDS011;18965;52.242;20.886;2022-08-03T03:18:23;14.02;;;8.80;;
32523;SDS011;18965;52.242;20.886;2022-08-03T03:20:52;11.35;;;8.18;;
32523;SDS011;18965;52.242;20.886;2022-08-03T03:23:22;7.72;;;6.80;;
32523;SDS011;18965;52.242;20.886;2022-08-03T03:25:50;10.30;;;7.93;;
32523;SDS011;18965;52.242;20.886;2022-08-03T03:28:17;13.60;;;8.23;;
32523;SDS011;18965;52.242;20.886;2022-08-03T03:30:43;12.77;;;8.25;;
32523;SDS011;18965;52.242;20.886;2022-08-03T03:33:09;8.75;;;7.78;;
32523;SDS011;18965;52.242;20.886;2022-08-03T03:35:36;12.85;;;8.50;;
32523;SDS011;18965;52.242;20.886;2022-08-03T03:38:02;10.73;;;7.72;;
32523;SDS011;18965;52.242;20.886;2022-08-03T03:40:28;8.48;;;7.57;;
32523;SDS011;18965;52.242;20.886;2022-08-03T03:42:54;9.15;;;7.93;;
32523;SDS011;18965;52.242;20.886;2022-08-03T03:45:20;11.52;;;8.18;;
32523;SDS011;18965;52.242;20.886;2022-08-03T03:47:47;10.27;;;8.27;;
32523;SDS011;18965;52.242;20.886;2022-08-03T03:50:14;12.13;;;8.48;;
32523;SDS011;18965;52.242;20.886;2022-08-03T03:52:42;10.32;;;7.70;;
32523;SDS011;18965;52.242;20.886;2022-08-03T03:55:07;11.52;;;7.90;;
32523;SDS011;18965;52.242;20.886;2022-08-03T03:57:33;10.05;;;8.00;;
32523;SDS011;18965;52.242;20.886;2022-08-03T03:59:59;11.65;;;8.00;;
32523;SDS011;18965;52.242;20.886;2022-08-03T04:02:25;9.98;;;8.13;;
32523;SDS011;18965;52.242;20.886;2022-08-03T04:04:51;11.45;;;8.32;;
32523;SDS011;18965;52.242;20.886;2022-08-03T04:07:45;13.15;;;9.10;;
32523;SDS011;18965;52.242;20.886;2022-08-03T04:10:37;12.13;;;9.02;;
32523;SDS011;18965;52.242;20.886;2022-08-03T04:13:26;13.88;;;9.75;;
32523;SDS011;18965;52.242;20.886;2022-08-03T04:16:03;19.42;;;10.80;;
32523;SDS011;18965;52.242;20.886;2022-08-03T04:18:33;13.50;;;9.38;;
32523;SDS011;18965;52.242;20.886;2022-08-03T04:21:00;13.98;;;10.27;;
32523;SDS011;18965;52.242;20.886;2022-08-03T04:23:29;13.75;;;10.52;;
32523;SDS011;18965;52.242;20.886;2022-08-03T04:25:58;15.45;;;10.73;;
32523;SDS011;18965;52.242;20.886;2022-08-03T04:28:27;14.40;;;11.13;;
32523;SDS011;18965;52.242;20.886;2022-08-03T04:30:56;13.88;;;11.70;;
32523;SDS011;18965;52.242;20.886;2022-08-03T04:33:28;17.23;;;11.50;;
32523;SDS011;18965;52.242;20.886;2022-08-03T04:35:58;14.50;;;11.88;;
32523;SDS011;18965;52.242;20.886;2022-08-03T04:38:25;16.05;;;12.20;;
32523;SDS011;18965;52.242;20.886;2022-08-03T04:40:55;18.02;;;12.73;;
32523;SDS011;18965;52.242;20.886;2022-08-03T04:43:22;15.70;;;12.23;;
32523;SDS011;18965;52.242;20.886;2022-08-03T04:45:49;14.80;;;11.38;;
32523;SDS011;18965;52.242;20.886;2022-08-03T04:48:16;16.05;;;11.68;;
32523;SDS011;18965;52.242;20.886;2022-08-03T04:50:44;13.43;;;11.93;;
32523;SDS011;18965;52.242;20.886;2022-08-03T04:53:11;14.30;;;11.73;;
32523;SDS011;18965;52.242;20.886;2022-08-03T04:55:37;17.75;;;11.85;;
32523;SDS011;18965;52.242;20.886;2022-08-03T04:58:04;13.60;;;12.05;;
32523;SDS011;18965;52.242;20.886;2022-08-03T05:00:30;11.77;;;10.55;;
32523;SDS011;18965;52.242;20.886;2022-08-03T05:02:57;13.02;;;11.65;;
32523;SDS011;18965;52.242;20.886;2022-08-03T05:05:24;12.77;;;10.55;;
32523;SDS011;18965;52.242;20.886;2022-08-03T05:07:50;16.00;;;11.93;;
32523;SDS011;18965;52.242;20.886;2022-08-03T05:10:17;16.52;;;11.80;;
32523;SDS011;18965;52.242;20.886;2022-08-03T05:12:46;17.17;;;13.00;;
32523;SDS011;18965;52.242;20.886;2022-08-03T05:15:16;15.57;;;11.85;;
32523;SDS011;18965;52.242;20.886;2022-08-03T05:17:42;13.82;;;12.07;;
32523;SDS011;18965;52.242;20.886;2022-08-03T05:20:08;12.98;;;11.68;;
32523;SDS011;18965;52.242;20.886;2022-08-03T05:22:35;12.98;;;11.50;;
32523;SDS011;18965;52.242;20.886;2022-08-03T05:25:01;12.35;;;11.15;;
32523;SDS011;18965;52.242;20.886;2022-08-03T05:27:27;13.93;;;11.75;;
32523;SDS011;18965;52.242;20.886;2022-08-03T05:29:52;17.73;;;11.50;;
32523;SDS011;18965;52.242;20.886;2022-08-03T05:32:18;16.00;;;12.25;;
32523;SDS011;18965;52.242;20.886;2022-08-03T05:34:44;17.27;;;12.90;;
32523;SDS011;18965;52.242;20.886;2022-08-03T05:37:10;13.70;;;12.35;;
32523;SDS011;18965;52.242;20.886;2022-08-03T05:39:36;13.85;;;12.18;;
32523;SDS011;18965;52.242;20.886;2022-08-03T05:42:02;14.27;;;11.18;;
32523;SDS011;18965;52.242;20.886;2022-08-03T05:44:28;14.25;;;11.20;;
32523;SDS011;18965;52.242;20.886;2022-08-03T05:46:54;13.73;;;10.90;;
32523;SDS011;18965;52.242;20.886;2022-08-03T05:49:20;12.02;;;10.77;;
32523;SDS011;18965;52.242;20.886;2022-08-03T05:51:46;13.88;;;11.80;;
32523;SDS011;18965;52.242;20.886;2022-08-03T05:54:12;13.55;;;11.00;;
32523;SDS011;18965;52.242;20.886;2022-08-03T05:56:38;13.70;;;10.88;;
32523;SDS011;18965;52.242;20.886;2022-08-03T05:59:06;13.40;;;10.93;;
32523;SDS011;18965;52.242;20.886;2022-08-03T06:01:32;11.65;;;10.45;;
32523;SDS011;18965;52.242;20.886;2022-08-03T06:03:58;13.98;;;11.40;;
32523;SDS011;18965;52.242;20.886;2022-08-03T06:06:24;17.10;;;11.98;;
32523;SDS011;18965;52.242;20.886;2022-08-03T06:08:49;15.30;;;11.55;;
32523;SDS011;18965;52.242;20.886;2022-08-03T06:11:15;18.45;;;12.75;;
32523;SDS011;18965;52.242;20.886;2022-08-03T06:13:42;14.25;;;11.38;;
32523;SDS011;18965;52.242;20.886;2022-08-03T06:16:08;14.43;;;12.27;;
32523;SDS011;18965;52.242;20.886;2022-08-03T06:18:34;16.08;;;12.52;;
32523;SDS011;18965;52.242;20.886;2022-08-03T06:21:00;13.20;;;11.38;;
32523;SDS011;18965;52.242;20.886;2022-08-03T06:23:27;17.23;;;13.35;;
32523;SDS011;18965;52.242;20.886;2022-08-03T06:25:53;15.98;;;12.48;;
32523;SDS011;18965;52.242;20.886;2022-08-03T06:28:18;15.77;;;11.13;;
32523;SDS011;18965;52.242;20.886;2022-08-03T06:30:44;12.15;;;10.70;;
32523;SDS011;18965;52.242;20.886;2022-08-03T06:33:11;13.02;;;11.63;;
32523;SDS011;18965;52.242;20.886;2022-08-03T06:35:37;16.42;;;11.70;;
32523;SDS011;18965;52.242;20.886;2022-08-03T06:38:03;12.20;;;9.43;;
32523;SDS011;18965;52.242;20.886;2022-08-03T06:40:29;15.48;;;10.43;;
32523;SDS011;18965;52.242;20.886;2022-08-03T06:42:59;16.15;;;11.70;;
32523;SDS011;18965;52.242;20.886;2022-08-03T06:45:26;17.33;;;11.68;;
32523;SDS011;18965;52.242;20.886;2022-08-03T06:48:06;13.77;;;11.70;;
32523;SDS011;18965;52.242;20.886;2022-08-03T06:50:34;16.10;;;11.27;;
32523;SDS011;18965;52.242;20.886;2022-08-03T06:53:01;18.95;;;12.57;;
32523;SDS011;18965;52.242;20.886;2022-08-03T06:55:28;14.20;;;11.82;;
32523;SDS011;18965;52.242;20.886;2022-08-03T06:57:54;15.52;;;13.00;;
32523;SDS011;18965;52.242;20.886;2022-08-03T07:00:20;14.15;;;12.38;;
32523;SDS011;18965;52.242;20.886;2022-08-03T07:02:46;12.98;;;11.57;;
32523;SDS011;18965;52.242;20.886;2022-08-03T07:05:12;19.17;;;12.65;;
32523;SDS011;18965;52.242;20.886;2022-08-03T07:07:39;14.38;;;12.15;;
32523;SDS011;18965;52.242;20.886;2022-08-03T07:10:05;13.52;;;12.07;;
32523;SDS011;18965;52.242;20.886;2022-08-03T07:12:32;16.52;;;11.82;;
32523;SDS011;18965;52.242;20.886;2022-08-03T07:14:59;15.90;;;12.35;;
32523;SDS011;18965;52.242;20.886;2022-08-03T07:17:25;16.98;;;11.63;;
32523;SDS011;18965;52.242;20.886;2022-08-03T07:19:51;14.95;;;11.95;;
32523;SDS011;18965;52.242;20.886;2022-08-03T07:22:17;15.48;;;11.95;;
32523;SDS011;18965;52.242;20.886;2022-08-03T07:24:43;15.50;;;11.18;;
32523;SDS011;18965;52.242;20.886;2022-08-03T07:27:09;15.43;;;10.50;;
32523;SDS011;18965;52.242;20.886;2022-08-03T07:29:35;14.52;;;11.20;;
32523;SDS011;18965;52.242;20.886;2022-08-03T07:32:02;14.23;;;12.43;;
32523;SDS011;18965;52.242;20.886;2022-08-03T07:34:29;12.15;;;10.55;;
32523;SDS011;18965;52.242;20.886;2022-08-03T07:36:55;13.30;;;9.50;;
32523;SDS011;18965;52.242;20.886;2022-08-03T07:39:21;12.32;;;8.55;;
32523;SDS011;18965;52.242;20.886;2022-08-03T07:41:47;13.50;;;9.60;;
32523;SDS011;18965;52.242;20.886;2022-08-03T07:44:15;10.82;;;8.25;;
32523;SDS011;18965;52.242;20.886;2022-08-03T07:46:41;12.73;;;8.73;;
32523;SDS011;18965;52.242;20.886;2022-08-03T07:49:08;11.52;;;7.55;;
32523;SDS011;18965;52.242;20.886;2022-08-03T07:51:33;15.30;;;8.18;;
32523;SDS011;18965;52.242;20.886;2022-08-03T07:53:59;9.98;;;7.40;;
32523;SDS011;18965;52.242;20.886;2022-08-03T07:56:25;9.70;;;6.95;;
32523;SDS011;18965;52.242;20.886;2022-08-03T07:58:52;11.57;;;7.10;;
32523;SDS011;18965;52.242;20.886;2022-08-03T08:01:19;8.15;;;6.43;;
32523;SDS011;18965;52.242;20.886;2022-08-03T08:03:45;7.80;;;6.95;;
32523;SDS011;18965;52.242;20.886;2022-08-03T08:06:11;10.25;;;6.85;;
32523;SDS011;18965;52.242;20.886;2022-08-03T08:08:37;12.05;;;6.97;;
32523;SDS011;18965;52.242;20.886;2022-08-03T08:11:03;8.60;;;6.18;;
32523;SDS011;18965;52.242;20.886;2022-08-03T08:13:29;14.43;;;6.47;;
32523;SDS011;18965;52.242;20.886;2022-08-03T08:15:55;9.32;;;5.68;;
32523;SDS011;18965;52.242;20.886;2022-08-03T08:18:21;10.10;;;5.80;;
32523;SDS011;18965;52.242;20.886;2022-08-03T08:20:48;6.82;;;5.30;;
32523;SDS011;18965;52.242;20.886;2022-08-03T08:23:14;8.55;;;5.22;;
32523;SDS011;18965;52.242;20.886;2022-08-03T08:25:46;6.18;;;5.00;;
32523;SDS011;18965;52.242;20.886;2022-08-03T08:28:15;8.95;;;5.65;;
32523;SDS011;18965;52.242;20.886;2022-08-03T08:30:45;8.57;;;5.78;;
32523;SDS011;18965;52.242;20.886;2022-08-03T08:33:11;8.13;;;5.78;;
32523;SDS011;18965;52.242;20.886;2022-08-03T08:35:37;8.90;;;5.53;;
32523;SDS011;18965;52.242;20.886;2022-08-03T08:38:03;7.78;;;6.03;;
32523;SDS011;18965;52.242;20.886;2022-08-03T08:40:29;8.57;;;5.63;;
32523;SDS011;18965;52.242;20.886;2022-08-03T08:42:55;8.85;;;5.72;;
32523;SDS011;18965;52.242;20.886;2022-08-03T08:45:21;9.38;;;5.40;;
32523;SDS011;18965;52.242;20.886;2022-08-03T08:47:47;7.70;;;5.72;;
32523;SDS011;18965;52.242;20.886;2022-08-03T08:50:20;6.07;;;5.40;;
32523;SDS011;18965;52.242;20.886;2022-08-03T08:52:47;5.32;;;4.65;;
32523;SDS011;18965;52.242;20.886;2022-08-03T08:55:18;10.38;;;5.72;;
32523;SDS011;18965;52.242;20.886;2022-08-03T08:57:50;5.53;;;4.78;;
32523;SDS011;18965;52.242;20.886;2022-08-03T09:00:21;6.18;;;4.03;;
32523;SDS011;18965;52.242;20.886;2022-08-03T09:02:47;5.03;;;3.40;;
32523;SDS011;18965;52.242;20.886;2022-08-03T09:05:14;5.28;;;3.30;;
32523;SDS011;18965;52.242;20.886;2022-08-03T09:07:44;6.00;;;3.58;;
32523;SDS011;18965;52.242;20.886;2022-08-03T09:10:11;5.80;;;3.70;;
32523;SDS011;18965;52.242;20.886;2022-08-03T09:12:41;3.63;;;3.22;;
32523;SDS011;18965;52.242;20.886;2022-08-03T09:17:45;4.18;;;2.05;;
32523;SDS011;18965;52.242;20.886;2022-08-03T09:20:11;3.20;;;2.90;;
32523;SDS011;18965;52.242;20.886;2022-08-03T09:25:25;5.22;;;2.35;;
32523;SDS011;18965;52.242;20.886;2022-08-03T09:28:10;3.17;;;2.67;;
32523;SDS011;18965;52.242;20.886;2022-08-03T09:30:37;2.63;;;2.03;;
32523;SDS011;18965;52.242;20.886;2022-08-03T09:33:06;2.57;;;2.33;;
32523;SDS011;18965;52.242;20.886;2022-08-03T09:35:43;4.10;;;2.50;;
32523;SDS011;18965;52.242;20.886;2022-08-03T09:40:53;4.45;;;3.00;;
32523;SDS011;18965;52.242;20.886;2022-08-03T09:43:19;4.30;;;3.10;;
32523;SDS011;18965;52.242;20.886;2022-08-03T09:45:45;8.13;;;3.47;;
32523;SDS011;18965;52.242;20.886;2022-08-03T09:48:24;5.53;;;2.92;;
32523;SDS011;18965;52.242;20.886;2022-08-03T09:50:52;3.80;;;3.28;;
32523;SDS011;18965;52.242;20.886;2022-08-03T09:53:20;4.32;;;3.05;;
32523;SDS011;18965;52.242;20.886;2022-08-03T09:55:50;3.40;;;3.10;;
32523;SDS011;18965;52.242;20.886;2022-08-03T09:58:20;5.28;;;3.13;;
32523;SDS011;18965;52.242;20.886;2022-08-03T10:01:04;3.35;;;2.83;;
32523;SDS011;18965;52.242;20.886;2022-08-03T10:03:36;4.30;;;3.47;;
32523;SDS011;18965;52.242;20.886;2022-08-03T10:06:17;4.45;;;2.95;;
32523;SDS011;18965;52.242;20.886;2022-08-03T10:08:44;3.97;;;3.03;;
32523;SDS011;18965;52.242;20.886;2022-08-03T10:11:10;4.00;;;3.45;;
32523;SDS011;18965;52.242;20.886;2022-08-03T10:13:36;3.65;;;3.20;;
32523;SDS011;18965;52.242;20.886;2022-08-03T10:16:04;4.35;;;2.95;;
32523;SDS011;18965;52.242;20.886;2022-08-03T10:18:30;5.03;;;3.10;;
32523;SDS011;18965;52.242;20.886;2022-08-03T10:21:07;3.20;;;2.90;;
32523;SDS011;18965;52.242;20.886;2022-08-03T10:23:37;3.97;;;2.85;;
32523;SDS011;18965;52.242;20.886;2022-08-03T10:26:04;3.63;;;2.83;;
32523;SDS011;18965;52.242;20.886;2022-08-03T10:28:33;3.33;;;3.00;;
32523;SDS011;18965;52.242;20.886;2022-08-03T10:31:01;3.53;;;2.92;;
32523;SDS011;18965;52.242;20.886;2022-08-03T10:33:33;3.92;;;2.88;;
32523;SDS011;18965;52.242;20.886;2022-08-03T10:36:01;4.18;;;2.80;;
32523;SDS011;18965;52.242;20.886;2022-08-03T10:38:42;3.40;;;3.10;;
32523;SDS011;18965;52.242;20.886;2022-08-03T10:41:12;4.25;;;2.95;;
32523;SDS011;18965;52.242;20.886;2022-08-03T10:43:41;3.95;;;2.80;;
32523;SDS011;18965;52.242;20.886;2022-08-03T10:46:13;2.67;;;2.47;;
32523;SDS011;18965;52.242;20.886;2022-08-03T10:48:41;5.43;;;2.80;;
32523;SDS011;18965;52.242;20.886;2022-08-03T10:51:08;4.97;;;2.97;;
32523;SDS011;18965;52.242;20.886;2022-08-03T10:53:35;3.60;;;3.10;;
32523;SDS011;18965;52.242;20.886;2022-08-03T10:56:03;3.60;;;2.92;;
32523;SDS011;18965;52.242;20.886;2022-08-03T10:58:48;3.75;;;2.75;;
32523;SDS011;18965;52.242;20.886;2022-08-03T11:01:16;3.47;;;3.17;;
32523;SDS011;18965;52.242;20.886;2022-08-03T11:06:18;4.55;;;3.30;;
32523;SDS011;18965;52.242;20.886;2022-08-03T11:08:46;3.55;;;3.08;;
32523;SDS011;18965;52.242;20.886;2022-08-03T11:16:48;3.20;;;2.45;;
32523;SDS011;18965;52.242;20.886;2022-08-03T11:19:19;3.20;;;2.70;;
32523;SDS011;18965;52.242;20.886;2022-08-03T11:21:52;3.08;;;2.60;;
32523;SDS011;18965;52.242;20.886;2022-08-03T11:27:27;3.00;;;2.67;;
32523;SDS011;18965;52.242;20.886;2022-08-03T11:46:04;3.13;;;2.70;;
32523;SDS011;18965;52.242;20.886;2022-08-03T11:50:59;5.53;;;2.83;;
32523;SDS011;18965;52.242;20.886;2022-08-03T11:53:25;4.25;;;2.80;;
32523;SDS011;18965;52.242;20.886;2022-08-03T11:55:52;3.60;;;3.15;;
32523;SDS011;18965;52.242;20.886;2022-08-03T11:58:20;6.05;;;3.17;;
32523;SDS011;18965;52.242;20.886;2022-08-03T12:00:47;5.38;;;3.47;;
32523;SDS011;18965;52.242;20.886;2022-08-03T12:03:18;7.75;;;3.20;;
32523;SDS011;18965;52.242;20.886;2022-08-03T12:05:53;3.35;;;3.03;;
32523;SDS011;18965;52.242;20.886;2022-08-03T12:10:51;4.45;;;3.42;;
32523;SDS011;18965;52.242;20.886;2022-08-03T12:13:18;3.88;;;3.42;;
32523;SDS011;18965;52.242;20.886;2022-08-03T12:15:55;3.90;;;3.38;;
32523;SDS011;18965;52.242;20.886;2022-08-03T12:18:23;4.63;;;3.60;;
32523;SDS011;18965;52.242;20.886;2022-08-03T12:20:50;6.85;;;3.53;;
32523;SDS011;18965;52.242;20.886;2022-08-03T12:23:17;6.13;;;3.47;;
32523;SDS011;18965;52.242;20.886;2022-08-03T12:25:44;4.35;;;3.35;;
32523;SDS011;18965;52.242;20.886;2022-08-03T12:30:37;8.55;;;3.85;;
32523;SDS011;18965;52.242;20.886;2022-08-03T12:33:53;6.65;;;3.70;;
32523;SDS011;18965;52.242;20.886;2022-08-03T12:38:33;5.00;;;3.30;;
32523;SDS011;18965;52.242;20.886;2022-08-03T12:41:02;5.45;;;3.42;;
32523;SDS011;18965;52.242;20.886;2022-08-03T12:43:50;4.10;;;3.40;;
32523;SDS011;18965;52.242;20.886;2022-08-03T12:46:17;4.35;;;3.63;;
32523;SDS011;18965;52.242;20.886;2022-08-03T12:48:59;3.30;;;3.00;;
32523;SDS011;18965;52.242;20.886;2022-08-03T12:51:29;5.25;;;3.38;;
32523;SDS011;18965;52.242;20.886;2022-08-03T12:54:00;4.70;;;3.30;;
32523;SDS011;18965;52.242;20.886;2022-08-03T12:56:27;4.07;;;3.65;;
32523;SDS011;18965;52.242;20.886;2022-08-03T12:58:53;4.30;;;3.13;;
32523;SDS011;18965;52.242;20.886;2022-08-03T13:01:19;5.65;;;3.35;;
32523;SDS011;18965;52.242;20.886;2022-08-03T13:03:48;4.47;;;3.40;;
32523;SDS011;18965;52.242;20.886;2022-08-03T13:06:16;4.38;;;3.95;;
32523;SDS011;18965;52.242;20.886;2022-08-03T13:08:43;4.80;;;3.72;;
32523;SDS011;18965;52.242;20.886;2022-08-03T13:11:19;4.25;;;3.40;;
32523;SDS011;18965;52.242;20.886;2022-08-03T13:13:49;6.10;;;3.25;;
32523;SDS011;18965;52.242;20.886;2022-08-03T13:16:16;4.25;;;3.38;;
32523;SDS011;18965;52.242;20.886;2022-08-03T13:18:42;3.80;;;3.50;;
32523;SDS011;18965;52.242;20.886;2022-08-03T13:21:11;6.78;;;3.55;;
32523;SDS011;18965;52.242;20.886;2022-08-03T13:23:38;4.65;;;3.45;;
32523;SDS011;18965;52.242;20.886;2022-08-03T13:26:04;4.05;;;3.53;;
32523;SDS011;18965;52.242;20.886;2022-08-03T13:28:30;5.35;;;3.22;;
32523;SDS011;18965;52.242;20.886;2022-08-03T13:30:56;4.45;;;3.53;;
32523;SDS011;18965;52.242;20.886;2022-08-03T13:33:21;3.53;;;3.22;;
32523;SDS011;18965;52.242;20.886;2022-08-03T13:35:47;5.15;;;3.72;;
32523;SDS011;18965;52.242;20.886;2022-08-03T13:38:13;5.03;;;3.28;;
32523;SDS011;18965;52.242;20.886;2022-08-03T13:40:39;4.05;;;3.60;;
32523;SDS011;18965;52.242;20.886;2022-08-03T13:43:05;5.60;;;3.35;;
32523;SDS011;18965;52.242;20.886;2022-08-03T13:45:31;5.32;;;3.88;;
32523;SDS011;18965;52.242;20.886;2022-08-03T13:47:56;4.03;;;3.67;;
32523;SDS011;18965;52.242;20.886;2022-08-03T13:50:22;6.22;;;3.83;;
32523;SDS011;18965;52.242;20.886;2022-08-03T13:52:48;4.10;;;3.53;;
32523;SDS011;18965;52.242;20.886;2022-08-03T13:55:14;4.82;;;3.70;;
32523;SDS011;18965;52.242;20.886;2022-08-03T13:57:39;4.43;;;4.00;;
32523;SDS011;18965;52.242;20.886;2022-08-03T14:00:05;5.40;;;4.00;;
32523;SDS011;18965;52.242;20.886;2022-08-03T14:02:34;3.70;;;3.40;;
32523;SDS011;18965;52.242;20.886;2022-08-03T14:04:59;7.15;;;3.67;;
32523;SDS011;18965;52.242;20.886;2022-08-03T14:07:25;6.05;;;3.50;;
32523;SDS011;18965;52.242;20.886;2022-08-03T14:09:51;4.38;;;3.90;;
32523;SDS011;18965;52.242;20.886;2022-08-03T14:12:17;4.05;;;3.60;;
32523;SDS011;18965;52.242;20.886;2022-08-03T14:14:42;3.75;;;3.45;;
32523;SDS011;18965;52.242;20.886;2022-08-03T14:17:08;7.68;;;3.92;;
32523;SDS011;18965;52.242;20.886;2022-08-03T14:19:34;6.15;;;3.90;;
32523;SDS011;18965;52.242;20.886;2022-08-03T14:22:00;3.38;;;3.08;;
32523;SDS011;18965;52.242;20.886;2022-08-03T14:24:25;4.00;;;3.63;;
32523;SDS011;18965;52.242;20.886;2022-08-03T14:26:51;4.07;;;3.67;;
32523;SDS011;18965;52.242;20.886;2022-08-03T14:29:17;6.70;;;3.85;;
32523;SDS011;18965;52.242;20.886;2022-08-03T14:31:43;3.88;;;3.47;;
32523;SDS011;18965;52.242;20.886;2022-08-03T14:34:09;5.13;;;3.83;;
32523;SDS011;18965;52.242;20.886;2022-08-03T14:36:34;5.00;;;3.58;;
32523;SDS011;18965;52.242;20.886;2022-08-03T14:39:00;4.90;;;3.63;;
32523;SDS011;18965;52.242;20.886;2022-08-03T14:41:26;4.35;;;3.92;;
32523;SDS011;18965;52.242;20.886;2022-08-03T14:43:52;5.00;;;4.07;;
32523;SDS011;18965;52.242;20.886;2022-08-03T14:46:18;4.93;;;3.75;;
32523;SDS011;18965;52.242;20.886;2022-08-03T14:48:44;4.43;;;3.72;;
32523;SDS011;18965;52.242;20.886;2022-08-03T14:51:10;5.80;;;3.55;;
32523;SDS011;18965;52.242;20.886;2022-08-03T14:53:36;4.13;;;3.72;;
32523;SDS011;18965;52.242;20.886;2022-08-03T14:56:01;4.90;;;3.80;;
32523;SDS011;18965;52.242;20.886;2022-08-03T14:58:27;5.28;;;3.60;;
32523;SDS011;18965;52.242;20.886;2022-08-03T15:00:53;4.30;;;3.70;;
32523;SDS011;18965;52.242;20.886;2022-08-03T15:03:20;5.65;;;4.15;;
32523;SDS011;18965;52.242;20.886;2022-08-03T15:05:49;5.25;;;3.75;;
32523;SDS011;18965;52.242;20.886;2022-08-03T15:08:15;4.30;;;3.60;;
32523;SDS011;18965;52.242;20.886;2022-08-03T15:10:41;3.92;;;3.55;;
32523;SDS011;18965;52.242;20.886;2022-08-03T15:13:07;4.72;;;3.85;;
32523;SDS011;18965;52.242;20.886;2022-08-03T15:15:33;6.70;;;3.80;;
32523;SDS011;18965;52.242;20.886;2022-08-03T15:17:58;5.88;;;3.80;;
32523;SDS011;18965;52.242;20.886;2022-08-03T15:20:24;4.10;;;3.70;;
32523;SDS011;18965;52.242;20.886;2022-08-03T15:22:50;5.82;;;3.85;;
32523;SDS011;18965;52.242;20.886;2022-08-03T15:25:15;4.85;;;3.97;;
32523;SDS011;18965;52.242;20.886;2022-08-03T15:27:41;4.80;;;3.97;;
32523;SDS011;18965;52.242;20.886;2022-08-03T15:30:07;11.85;;;4.10;;